LFOH

Le Havre Octeville Airport

Le Havre/Octeville, France
TAF AMD LFOH 221452Z 2214/2312 32010KT CAVOK PROB30 2303/2306 3000 MIFG
Issued Valid From Valid To
Jul-22 @ 14:52 UTC
(5 hours ago)
Jul-22 @ 14:00 UTC
(6 hours ago)
Jul-23 @ 12:00 UTC
(in 16 hours)
Jul-22 @ 14:00 to Jul-23 @ 12:00
TAF AMD LFOH 221452Z 2214/2312 32010KT CAVOK
Wind Visibility Clouds Conditions
320° at 10 knots 10,000+ meters
  • No significant clouds
Probable  (Probability 30%) Jul-23 @ 03:00 to Jul-23 @ 06:00
PROB30 2303/2306 3000 MIFG
Visibility Conditions
2,993 meters
  • Shallow
  • Fog
TAF AMD LFOH 221452Z 2214/2312 32010KT CAVOK PROB30 2303/2306 3000 MIFG
Issued Jul-22 @ 14:52 UTC
(5 hours ago)
Valid From Jul-22 @ 14:00 UTC
(6 hours ago)
Valid To Jul-23 @ 12:00 UTC
(in 16 hours)
Jul-22 @ 14:00 - Jul-23 @ 12:00
Wind Visibility
320° at 10 knots 10,000+ meters
Clouds
  • No significant clouds
Conditions
Probability 30% Probable Jul-23 @ 03:00 - Jul-23 @ 06:00
Conditions
  • Shallow
  • Fog